sensor_id;sensor_type;location;lat;lon;timestamp;pressure;altitude;pressure_sealevel;temperature;humidity
73341;BME280;61578;52.002;5.468;2023-05-24T00:00:29;102450.78;;;8.17;79.37
73341;BME280;61578;52.002;5.468;2023-05-24T00:01:00;102451.69;;;8.16;79.56
73341;BME280;61578;52.002;5.468;2023-05-24T00:01:31;102447.38;;;8.13;79.63
73341;BME280;61578;52.002;5.468;2023-05-24T00:02:02;102449.03;;;8.16;79.80
73341;BME280;61578;52.002;5.468;2023-05-24T00:02:33;102451.69;;;8.16;79.37
73341;BME280;61578;52.002;5.468;2023-05-24T00:03:03;102441.22;;;8.13;79.53
73341;BME280;61578;52.002;5.468;2023-05-24T00:03:35;102445.50;;;8.17;79.74
73341;BME280;61578;52.002;5.468;2023-05-24T00:04:08;102440.25;;;8.16;78.93
73341;BME280;61578;52.002;5.468;2023-05-24T00:04:40;102445.63;;;8.12;78.84
73341;BME280;61578;52.002;5.468;2023-05-24T00:05:11;102429.16;;;8.03;79.02
73341;BME280;61578;52.002;5.468;2023-05-24T00:05:43;102445.75;;;8.08;79.87
73341;BME280;61578;52.002;5.468;2023-05-24T00:06:15;102426.66;;;7.97;79.55
73341;BME280;61578;52.002;5.468;2023-05-24T00:06:46;102436.13;;;8.05;79.53
73341;BME280;61578;52.002;5.468;2023-05-24T00:07:18;102437.91;;;8.05;79.73
73341;BME280;61578;52.002;5.468;2023-05-24T00:07:49;102436.19;;;8.04;79.36
73341;BME280;61578;52.002;5.468;2023-05-24T00:08:22;102430.06;;;8.02;80.14
73341;BME280;61578;52.002;5.468;2023-05-24T00:08:53;102397.91;;;7.85;80.01
73341;BME280;61578;52.002;5.468;2023-05-24T00:09:24;102408.34;;;7.91;79.95
73341;BME280;61578;52.002;5.468;2023-05-24T00:09:54;102431.84;;;8.01;79.75
73341;BME280;61578;52.002;5.468;2023-05-24T00:10:25;102436.13;;;8.05;79.30
73341;BME280;61578;52.002;5.468;2023-05-24T00:10:56;102396.28;;;7.81;79.12
73341;BME280;61578;52.002;5.468;2023-05-24T00:11:26;102432.59;;;8.05;79.88
73341;BME280;61578;52.002;5.468;2023-05-24T00:11:57;102443.19;;;8.05;79.62
73341;BME280;61578;52.002;5.468;2023-05-24T00:12:28;102433.66;;;7.99;79.34
73341;BME280;61578;52.002;5.468;2023-05-24T00:12:59;102430.97;;;8.01;79.25
73341;BME280;61578;52.002;5.468;2023-05-24T00:13:29;102433.63;;;8.01;79.55
73341;BME280;61578;52.002;5.468;2023-05-24T00:14:00;102436.28;;;8.01;79.71
73341;BME280;61578;52.002;5.468;2023-05-24T00:14:31;102427.50;;;7.99;80.11
73341;BME280;61578;52.002;5.468;2023-05-24T00:15:05;102347.81;;;7.49;79.59
73341;BME280;61578;52.002;5.468;2023-05-24T00:15:36;102429.31;;;7.97;79.44
73341;BME280;61578;52.002;5.468;2023-05-24T00:16:07;102404.31;;;7.76;79.64
73341;BME280;61578;52.002;5.468;2023-05-24T00:16:40;102446.97;;;7.96;80.00
73341;BME280;61578;52.002;5.468;2023-05-24T00:17:11;102425.84;;;7.95;79.67
73341;BME280;61578;52.002;5.468;2023-05-24T00:17:42;102422.53;;;7.87;79.48
73341;BME280;61578;52.002;5.468;2023-05-24T00:18:12;102425.16;;;7.88;79.48
73341;BME280;61578;52.002;5.468;2023-05-24T00:18:43;102371.44;;;7.54;79.66
73341;BME280;61578;52.002;5.468;2023-05-24T00:19:16;102433.13;;;7.87;79.92
73341;BME280;61578;52.002;5.468;2023-05-24T00:19:50;102428.75;;;7.86;80.17
73341;BME280;61578;52.002;5.468;2023-05-24T00:20:21;102425.19;;;7.87;80.02
73341;BME280;61578;52.002;5.468;2023-05-24T00:20:52;102420.81;;;7.86;79.89
73341;BME280;61578;52.002;5.468;2023-05-24T00:21:26;102426.88;;;7.89;80.58
73341;BME280;61578;52.002;5.468;2023-05-24T00:21:57;102421.56;;;7.91;81.04
73341;BME280;61578;52.002;5.468;2023-05-24T00:22:27;102426.78;;;7.94;80.33
73341;BME280;61578;52.002;5.468;2023-05-24T00:22:58;102427.69;;;7.93;79.73
73341;BME280;61578;52.002;5.468;2023-05-24T00:23:29;102418.06;;;7.90;79.44
73341;BME280;61578;52.002;5.468;2023-05-24T00:23:59;102426.94;;;7.88;79.67
73341;BME280;61578;52.002;5.468;2023-05-24T00:24:33;102416.53;;;7.82;79.26
73341;BME280;61578;52.002;5.468;2023-05-24T00:25:04;102420.81;;;7.86;79.48
73341;BME280;61578;52.002;5.468;2023-05-24T00:25:35;102424.34;;;7.85;80.01
73341;BME280;61578;52.002;5.468;2023-05-24T00:26:06;102430.66;;;7.81;79.80
73341;BME280;61578;52.002;5.468;2023-05-24T00:26:38;102428.75;;;7.86;80.02
73341;BME280;61578;52.002;5.468;2023-05-24T00:27:08;102441.09;;;7.85;80.44
73341;BME280;61578;52.002;5.468;2023-05-24T00:27:41;102433.13;;;7.87;80.15
73341;BME280;61578;52.002;5.468;2023-05-24T00:28:13;102377.53;;;7.57;79.81
73341;BME280;61578;52.002;5.468;2023-05-24T00:28:44;102424.34;;;7.85;79.15
73341;BME280;61578;52.002;5.468;2023-05-24T00:29:15;102430.63;;;7.82;79.87
73341;BME280;61578;52.002;5.468;2023-05-24T00:29:45;102433.25;;;7.82;80.27
73341;BME280;61578;52.002;5.468;2023-05-24T00:30:16;102426.19;;;7.83;80.73
73341;BME280;61578;52.002;5.468;2023-05-24T00:30:47;102435.03;;;7.82;80.24
73341;BME280;61578;52.002;5.468;2023-05-24T00:31:18;102427.09;;;7.82;79.88
73341;BME280;61578;52.002;5.468;2023-05-24T00:31:48;102421.09;;;7.75;79.63
73341;BME280;61578;52.002;5.468;2023-05-24T00:32:22;102415.84;;;7.73;80.17
73341;BME280;61578;52.002;5.468;2023-05-24T00:32:52;102428.97;;;7.78;80.05
73341;BME280;61578;52.002;5.468;2023-05-24T00:33:23;102426.34;;;7.76;80.32
73341;BME280;61578;52.002;5.468;2023-05-24T00:33:54;102422.88;;;7.74;80.20
73341;BME280;61578;52.002;5.468;2023-05-24T00:34:25;102416.88;;;7.68;80.36
73341;BME280;61578;52.002;5.468;2023-05-24T00:34:55;102417.69;;;7.71;80.41
73341;BME280;61578;52.002;5.468;2023-05-24T00:35:26;102423.75;;;7.75;80.32
73341;BME280;61578;52.002;5.468;2023-05-24T00:35:59;102373.44;;;7.46;79.71
73341;BME280;61578;52.002;5.468;2023-05-24T00:36:30;102408.06;;;7.69;79.88
73341;BME280;61578;52.002;5.468;2023-05-24T00:37:02;102418.56;;;7.72;80.18
73341;BME280;61578;52.002;5.468;2023-05-24T00:37:32;102422.94;;;7.73;80.01
73341;BME280;61578;52.002;5.468;2023-05-24T00:38:03;102423.91;;;7.69;79.90
73341;BME280;61578;52.002;5.468;2023-05-24T00:38:34;102418.59;;;7.70;80.18
73341;BME280;61578;52.002;5.468;2023-05-24T00:39:04;102425.59;;;7.73;80.55
73341;BME280;61578;52.002;5.468;2023-05-24T00:39:35;102428.22;;;7.73;80.86
73341;BME280;61578;52.002;5.468;2023-05-24T00:40:06;102414.16;;;7.72;80.71
73341;BME280;61578;52.002;5.468;2023-05-24T00:40:38;102419.34;;;7.74;80.77
73341;BME280;61578;52.002;5.468;2023-05-24T00:41:08;102415.84;;;7.73;80.69
73341;BME280;61578;52.002;5.468;2023-05-24T00:41:40;102413.19;;;7.73;80.20
73341;BME280;61578;52.002;5.468;2023-05-24T00:42:11;102421.97;;;7.75;81.28
73341;BME280;61578;52.002;5.468;2023-05-24T00:42:41;102426.31;;;7.78;80.83
73341;BME280;61578;52.002;5.468;2023-05-24T00:43:12;102358.53;;;7.43;80.49
73341;BME280;61578;52.002;5.468;2023-05-24T00:43:43;102415.81;;;7.75;80.71
73341;BME280;61578;52.002;5.468;2023-05-24T00:44:14;102399.44;;;7.62;80.78
73341;BME280;61578;52.002;5.468;2023-05-24T00:44:45;102401.03;;;7.68;80.28
73341;BME280;61578;52.002;5.468;2023-05-24T00:45:15;102403.63;;;7.69;80.56
73341;BME280;61578;52.002;5.468;2023-05-24T00:45:46;102414.16;;;7.72;80.81
73341;BME280;61578;52.002;5.468;2023-05-24T00:46:20;102412.41;;;7.71;80.35
73341;BME280;61578;52.002;5.468;2023-05-24T00:46:56;102411.50;;;7.72;80.88
73341;BME280;61578;52.002;5.468;2023-05-24T00:47:29;102409.72;;;7.73;80.60
73341;BME280;61578;52.002;5.468;2023-05-24T00:48:00;102407.19;;;7.68;81.01
73341;BME280;61578;52.002;5.468;2023-05-24T00:48:31;102401.00;;;7.69;81.22
73341;BME280;61578;52.002;5.468;2023-05-24T00:49:02;102411.38;;;7.75;80.64
73341;BME280;61578;52.002;5.468;2023-05-24T00:49:33;102407.84;;;7.76;80.57
73341;BME280;61578;52.002;5.468;2023-05-24T00:50:06;102407.88;;;7.75;80.59
73341;BME280;61578;52.002;5.468;2023-05-24T00:50:39;102408.75;;;7.75;80.64
73341;BME280;61578;52.002;5.468;2023-05-24T00:51:12;102412.25;;;7.76;80.59
73341;BME280;61578;52.002;5.468;2023-05-24T00:51:44;102413.28;;;7.72;80.39
73341;BME280;61578;52.002;5.468;2023-05-24T00:52:16;102407.97;;;7.72;80.48
73341;BME280;61578;52.002;5.468;2023-05-24T00:52:48;102365.41;;;7.50;80.96
73341;BME280;61578;52.002;5.468;2023-05-24T00:53:21;102396.56;;;7.70;80.21
73341;BME280;61578;52.002;5.468;2023-05-24T00:53:53;102410.56;;;7.73;80.67
73341;BME280;61578;52.002;5.468;2023-05-24T00:54:24;102361.03;;;7.49;80.48
73341;BME280;61578;52.002;5.468;2023-05-24T00:54:56;102405.38;;;7.70;80.47
73341;BME280;61578;52.002;5.468;2023-05-24T00:55:29;102339.41;;;7.33;80.31
73341;BME280;61578;52.002;5.468;2023-05-24T00:56:00;102408.09;;;7.67;80.18
73341;BME280;61578;52.002;5.468;2023-05-24T00:56:33;102397.47;;;7.69;80.41
73341;BME280;61578;52.002;5.468;2023-05-24T00:57:05;102402.72;;;7.70;80.66
73341;BME280;61578;52.002;5.468;2023-05-24T00:57:36;102396.63;;;7.68;80.02
73341;BME280;61578;52.002;5.468;2023-05-24T00:58:06;102408.97;;;7.68;80.38
73341;BME280;61578;52.002;5.468;2023-05-24T00:58:37;102382.03;;;7.54;80.39
73341;BME280;61578;52.002;5.468;2023-05-24T00:59:08;102410.81;;;7.64;80.71
73341;BME280;61578;52.002;5.468;2023-05-24T00:59:39;102408.06;;;7.69;80.99
73341;BME280;61578;52.002;5.468;2023-05-24T01:00:11;102396.84;;;7.61;80.39
73341;BME280;61578;52.002;5.468;2023-05-24T01:00:46;102404.72;;;7.62;80.53
73341;BME280;61578;52.002;5.468;2023-05-24T01:01:19;102401.22;;;7.62;80.41
73341;BME280;61578;52.002;5.468;2023-05-24T01:01:49;102404.84;;;7.58;80.48
73341;BME280;61578;52.002;5.468;2023-05-24T01:02:21;102409.06;;;7.63;81.11
73341;BME280;61578;52.002;5.468;2023-05-24T01:02:52;102405.53;;;7.64;81.08
73341;BME280;61578;52.002;5.468;2023-05-24T01:03:25;102359.59;;;7.36;80.68
73341;BME280;61578;52.002;5.468;2023-05-24T01:03:59;102400.25;;;7.64;80.73
73341;BME280;61578;52.002;5.468;2023-05-24T01:04:29;102367.19;;;7.50;80.74
73341;BME280;61578;52.002;5.468;2023-05-24T01:05:02;102413.09;;;7.78;80.44
73341;BME280;61578;52.002;5.468;2023-05-24T01:05:33;102395.88;;;7.94;79.51
73341;BME280;61578;52.002;5.468;2023-05-24T01:06:06;102361.06;;;7.48;79.70
73341;BME280;61578;52.002;5.468;2023-05-24T01:06:54;102400.13;;;7.69;80.46
73341;BME280;61578;52.002;5.468;2023-05-24T01:07:53;102408.31;;;7.60;80.39
73341;BME280;61578;52.002;5.468;2023-05-24T01:09:37;102409.31;;;7.54;81.06
73341;BME280;61578;52.002;5.468;2023-05-24T01:11:32;102404.16;;;7.50;81.17
73341;BME280;61578;52.002;5.468;2023-05-24T01:12:34;102308.66;;;6.98;81.22
73341;BME280;61578;52.002;5.468;2023-05-24T01:13:21;102400.81;;;7.43;81.13
73341;BME280;61578;52.002;5.468;2023-05-24T01:14:28;102402.44;;;7.49;81.61
73341;BME280;61578;52.002;5.468;2023-05-24T01:15:40;102405.06;;;7.49;81.49
73341;BME280;61578;52.002;5.468;2023-05-24T01:16:23;102406.91;;;7.45;81.29
73341;BME280;61578;52.002;5.468;2023-05-24T01:17:05;102409.59;;;7.44;80.89
73341;BME280;61578;52.002;5.468;2023-05-24T01:17:57;102408.72;;;7.43;81.47
73341;BME280;61578;52.002;5.468;2023-05-24T01:18:33;102398.16;;;7.43;81.74
73341;BME280;61578;52.002;5.468;2023-05-24T01:19:47;102400.88;;;7.42;81.34
73341;BME280;61578;52.002;5.468;2023-05-24T01:20:42;102409.66;;;7.42;81.31
73341;BME280;61578;52.002;5.468;2023-05-24T01:21:53;102403.53;;;7.40;81.18
73341;BME280;61578;52.002;5.468;2023-05-24T01:24:58;102412.38;;;7.39;80.99
73341;BME280;61578;52.002;5.468;2023-05-24T01:26:07;102405.38;;;7.36;81.99
73341;BME280;61578;52.002;5.468;2023-05-24T01:27:16;102361.19;;;7.09;81.86
73341;BME280;61578;52.002;5.468;2023-05-24T01:27:49;102408.84;;;7.40;81.86
73341;BME280;61578;52.002;5.468;2023-05-24T01:28:21;102403.63;;;7.37;81.77
73341;BME280;61578;52.002;5.468;2023-05-24T01:28:53;102416.66;;;7.43;81.72
73341;BME280;61578;52.002;5.468;2023-05-24T01:29:25;102400.75;;;7.45;82.10
73341;BME280;61578;52.002;5.468;2023-05-24T01:29:59;102406.91;;;7.45;81.84
73341;BME280;61578;52.002;5.468;2023-05-24T01:30:32;102396.53;;;7.39;81.80
73341;BME280;61578;52.002;5.468;2023-05-24T01:31:05;102410.41;;;7.47;81.52
73341;BME280;61578;52.002;5.468;2023-05-24T01:31:37;102409.50;;;7.48;81.68
73341;BME280;61578;52.002;5.468;2023-05-24T01:32:07;102397.22;;;7.46;82.09
73341;BME280;61578;52.002;5.468;2023-05-24T01:32:39;102409.38;;;7.53;81.40
73341;BME280;61578;52.002;5.468;2023-05-24T01:33:10;102397.22;;;7.46;81.26
73341;BME280;61578;52.002;5.468;2023-05-24T01:33:42;102401.53;;;7.50;81.23
73341;BME280;61578;52.002;5.468;2023-05-24T01:34:14;102399.81;;;7.47;81.15
73341;BME280;61578;52.002;5.468;2023-05-24T01:34:44;102402.44;;;7.49;81.56
73341;BME280;61578;52.002;5.468;2023-05-24T01:35:15;102402.44;;;7.49;81.98
73341;BME280;61578;52.002;5.468;2023-05-24T01:35:46;102399.78;;;7.49;81.41
73341;BME280;61578;52.002;5.468;2023-05-24T01:36:16;102396.31;;;7.47;81.59
73341;BME280;61578;52.002;5.468;2023-05-24T01:36:47;102399.75;;;7.50;82.05
73341;BME280;61578;52.002;5.468;2023-05-24T01:37:17;102397.97;;;7.51;81.45
73341;BME280;61578;52.002;5.468;2023-05-24T01:37:51;102392.72;;;7.49;81.76
73341;BME280;61578;52.002;5.468;2023-05-24T01:38:22;102401.56;;;7.48;81.24
73341;BME280;61578;52.002;5.468;2023-05-24T01:38:52;102389.31;;;7.44;81.36
73341;BME280;61578;52.002;5.468;2023-05-24T01:39:26;102392.69;;;7.51;81.36
73341;BME280;61578;52.002;5.468;2023-05-24T01:40:01;102394.50;;;7.49;81.16
73341;BME280;61578;52.002;5.468;2023-05-24T01:40:34;102408.59;;;7.49;81.63
73341;BME280;61578;52.002;5.468;2023-05-24T01:42:35;102399.72;;;7.52;81.91
73341;BME280;61578;52.002;5.468;2023-05-24T01:43:02;102400.63;;;7.51;81.33
73341;BME280;61578;52.002;5.468;2023-05-24T01:43:42;102404.09;;;7.53;81.87
73341;BME280;61578;52.002;5.468;2023-05-24T01:45:32;102400.44;;;7.57;81.45
73341;BME280;61578;52.002;5.468;2023-05-24T01:47:23;102396.63;;;7.68;81.90
73341;BME280;61578;52.002;5.468;2023-05-24T01:48:18;102396.31;;;7.79;81.93
73341;BME280;61578;52.002;5.468;2023-05-24T01:49:50;102393.31;;;7.93;82.11
73341;BME280;61578;52.002;5.468;2023-05-24T01:50:31;102397.69;;;7.94;81.38
73341;BME280;61578;52.002;5.468;2023-05-24T01:51:07;102388.91;;;7.92;81.95
73341;BME280;61578;52.002;5.468;2023-05-24T01:51:52;102384.47;;;7.94;82.06
73341;BME280;61578;52.002;5.468;2023-05-24T01:52:33;102387.75;;;8.02;81.52
73341;BME280;61578;52.002;5.468;2023-05-24T01:53:12;102383.38;;;8.01;81.51
73341;BME280;61578;52.002;5.468;2023-05-24T01:53:48;102385.09;;;8.02;81.91
73341;BME280;61578;52.002;5.468;2023-05-24T01:54:25;102398.09;;;8.09;81.95
73341;BME280;61578;52.002;5.468;2023-05-24T01:54:59;102390.94;;;8.13;82.28
73341;BME280;61578;52.002;5.468;2023-05-24T01:55:36;102390.81;;;8.18;81.98
73341;BME280;61578;52.002;5.468;2023-05-24T01:56:10;102395.34;;;8.14;82.87
73341;BME280;61578;52.002;5.468;2023-05-24T01:56:43;102398.94;;;8.11;81.88
73341;BME280;61578;52.002;5.468;2023-05-24T01:57:21;102354.69;;;7.86;82.34
73341;BME280;61578;52.002;5.468;2023-05-24T01:57:59;102389.38;;;8.06;81.85
73341;BME280;61578;52.002;5.468;2023-05-24T01:58:33;102396.38;;;8.08;82.72
73341;BME280;61578;52.002;5.468;2023-05-24T01:59:06;102405.13;;;8.10;82.87
73341;BME280;61578;52.002;5.468;2023-05-24T01:59:41;102356.34;;;7.90;82.24
73341;BME280;61578;52.002;5.468;2023-05-24T02:00:14;102393.63;;;8.11;82.26
73341;BME280;61578;52.002;5.468;2023-05-24T02:00:49;102395.97;;;8.22;82.44
73341;BME280;61578;52.002;5.468;2023-05-24T02:01:21;102398.38;;;8.31;81.81
73341;BME280;61578;52.002;5.468;2023-05-24T02:01:56;102400.13;;;8.32;81.75
73341;BME280;61578;52.002;5.468;2023-05-24T02:02:27;102345.69;;;7.93;81.70
73341;BME280;61578;52.002;5.468;2023-05-24T02:03:00;102400.25;;;8.26;82.09
73341;BME280;61578;52.002;5.468;2023-05-24T02:03:35;102328.56;;;7.75;81.73
73341;BME280;61578;52.002;5.468;2023-05-24T02:04:07;102350.09;;;7.94;82.09
73341;BME280;61578;52.002;5.468;2023-05-24T02:04:38;102351.75;;;7.96;81.98
73341;BME280;61578;52.002;5.468;2023-05-24T02:05:09;102405.69;;;8.22;82.15
73341;BME280;61578;52.002;5.468;2023-05-24T02:05:46;102399.44;;;8.24;81.98
73341;BME280;61578;52.002;5.468;2023-05-24T02:06:17;102405.56;;;8.25;82.33
73341;BME280;61578;52.002;5.468;2023-05-24T02:06:48;102389.84;;;8.20;82.50
73341;BME280;61578;52.002;5.468;2023-05-24T02:07:18;102399.38;;;8.26;82.40
73341;BME280;61578;52.002;5.468;2023-05-24T02:07:49;102390.69;;;8.22;82.10
73341;BME280;61578;52.002;5.468;2023-05-24T02:08:20;102397.56;;;8.28;82.05
73341;BME280;61578;52.002;5.468;2023-05-24T02:08:51;102409.88;;;8.29;82.18
73341;BME280;61578;52.002;5.468;2023-05-24T02:09:22;102400.25;;;8.26;82.29
73341;BME280;61578;52.002;5.468;2023-05-24T02:09:53;102404.53;;;8.32;81.96
73341;BME280;61578;52.002;5.468;2023-05-24T02:10:24;102400.13;;;8.31;82.23
73341;BME280;61578;52.002;5.468;2023-05-24T02:10:55;102393.22;;;8.25;82.19
73341;BME280;61578;52.002;5.468;2023-05-24T02:11:25;102369.03;;;8.08;82.25
73341;BME280;61578;52.002;5.468;2023-05-24T02:12:00;102403.63;;;8.33;81.88
73341;BME280;61578;52.002;5.468;2023-05-24T02:12:31;102339.31;;;8.00;81.80
73341;BME280;61578;52.002;5.468;2023-05-24T02:13:02;102387.78;;;8.31;82.32
73341;BME280;61578;52.002;5.468;2023-05-24T02:13:33;102402.75;;;8.32;82.15
73341;BME280;61578;52.002;5.468;2023-05-24T02:14:04;102403.59;;;8.34;82.00
73341;BME280;61578;52.002;5.468;2023-05-24T02:14:34;102393.81;;;8.36;82.55
73341;BME280;61578;52.002;5.468;2023-05-24T02:15:07;102399.06;;;8.38;81.99
73341;BME280;61578;52.002;5.468;2023-05-24T02:15:39;102389.34;;;8.38;82.59
73341;BME280;61578;52.002;5.468;2023-05-24T02:16:11;102347.81;;;8.11;82.29
73341;BME280;61578;52.002;5.468;2023-05-24T02:16:42;102391.06;;;8.39;82.65
73341;BME280;61578;52.002;5.468;2023-05-24T02:17:17;102331.09;;;8.09;82.47
73341;BME280;61578;52.002;5.468;2023-05-24T02:17:47;102389.16;;;8.44;82.90
73341;BME280;61578;52.002;5.468;2023-05-24T02:18:18;102304.25;;;7.93;82.18
73341;BME280;61578;52.002;5.468;2023-05-24T02:18:49;102393.63;;;8.42;82.33
73341;BME280;61578;52.002;5.468;2023-05-24T02:19:19;102362.34;;;8.26;82.67
73341;BME280;61578;52.002;5.468;2023-05-24T02:19:50;102390.16;;;8.40;82.35
73341;BME280;61578;52.002;5.468;2023-05-24T02:20:21;102397.00;;;8.47;82.79
73341;BME280;61578;52.002;5.468;2023-05-24T02:20:53;102390.78;;;8.48;82.23
73341;BME280;61578;52.002;5.468;2023-05-24T02:21:26;102405.81;;;8.48;82.69
73341;BME280;61578;52.002;5.468;2023-05-24T02:21:58;102400.41;;;8.51;82.97
73341;BME280;61578;52.002;5.468;2023-05-24T02:22:28;102363.94;;;8.33;82.76
73341;BME280;61578;52.002;5.468;2023-05-24T02:22:59;102400.38;;;8.53;82.49
73341;BME280;61578;52.002;5.468;2023-05-24T02:23:30;102387.19;;;8.51;82.25
73341;BME280;61578;52.002;5.468;2023-05-24T02:24:00;102343.06;;;8.22;82.29
73341;BME280;61578;52.002;5.468;2023-05-24T02:24:31;102388.13;;;8.48;81.98
73341;BME280;61578;52.002;5.468;2023-05-24T02:25:02;102382.06;;;8.45;82.73
73341;BME280;61578;52.002;5.468;2023-05-24T02:25:34;102390.63;;;8.55;82.34
73341;BME280;61578;52.002;5.468;2023-05-24T02:26:05;102394.97;;;8.56;82.70
73341;BME280;61578;52.002;5.468;2023-05-24T02:26:37;102349.84;;;8.31;82.17
73341;BME280;61578;52.002;5.468;2023-05-24T02:27:09;102388.69;;;8.60;82.19
73341;BME280;61578;52.002;5.468;2023-05-24T02:27:40;102338.06;;;8.42;82.12
73341;BME280;61578;52.002;5.468;2023-05-24T02:28:11;102394.34;;;8.75;81.62
73341;BME280;61578;52.002;5.468;2023-05-24T02:28:42;102398.72;;;8.76;81.74
73341;BME280;61578;52.002;5.468;2023-05-24T02:29:13;102332.56;;;8.48;81.65
73341;BME280;61578;52.002;5.468;2023-05-24T02:29:44;102390.56;;;8.84;81.96
73341;BME280;61578;52.002;5.468;2023-05-24T02:30:17;102387.09;;;8.82;81.88
73341;BME280;61578;52.002;5.468;2023-05-24T02:30:48;102394.88;;;8.86;81.56
73341;BME280;61578;52.002;5.468;2023-05-24T02:31:21;102383.41;;;8.86;81.45
73341;BME280;61578;52.002;5.468;2023-05-24T02:31:52;102390.34;;;8.90;81.82
73341;BME280;61578;52.002;5.468;2023-05-24T02:32:27;102393.88;;;8.91;81.60
73341;BME280;61578;52.002;5.468;2023-05-24T02:32:59;102378.13;;;8.86;81.20
73341;BME280;61578;52.002;5.468;2023-05-24T02:33:29;102385.06;;;8.90;81.40
73341;BME280;61578;52.002;5.468;2023-05-24T02:34:00;102345.09;;;8.70;81.07
73341;BME280;61578;52.002;5.468;2023-05-24T02:34:31;102379.66;;;8.93;81.11
73341;BME280;61578;52.002;5.468;2023-05-24T02:35:02;102343.94;;;8.78;80.65
73341;BME280;61578;52.002;5.468;2023-05-24T02:35:33;102389.09;;;9.02;80.32
73341;BME280;61578;52.002;5.468;2023-05-24T02:36:04;102337.06;;;8.73;80.73
73341;BME280;61578;52.002;5.468;2023-05-24T02:36:36;102390.00;;;9.01;80.87
73341;BME280;61578;52.002;5.468;2023-05-24T02:37:07;102396.31;;;8.97;80.91
73341;BME280;61578;52.002;5.468;2023-05-24T02:37:37;102390.91;;;9.00;80.61
73341;BME280;61578;52.002;5.468;2023-05-24T02:38:08;102393.53;;;9.01;80.91
73341;BME280;61578;52.002;5.468;2023-05-24T02:38:39;102392.59;;;9.02;81.12
73341;BME280;61578;52.002;5.468;2023-05-24T02:39:10;102379.53;;;8.96;80.84
73341;BME280;61578;52.002;5.468;2023-05-24T02:39:40;102366.50;;;8.90;80.84
73341;BME280;61578;52.002;5.468;2023-05-24T02:40:11;102334.56;;;8.68;80.51
73341;BME280;61578;52.002;5.468;2023-05-24T02:40:42;102389.13;;;9.00;80.72
73341;BME280;61578;52.002;5.468;2023-05-24T02:41:13;102389.97;;;9.02;80.74
73341;BME280;61578;52.002;5.468;2023-05-24T02:41:47;102381.25;;;8.99;80.92
73341;BME280;61578;52.002;5.468;2023-05-24T02:42:18;102390.88;;;9.01;80.96
73341;BME280;61578;52.002;5.468;2023-05-24T02:42:51;102382.19;;;8.96;80.67
73341;BME280;61578;52.002;5.468;2023-05-24T02:43:22;102388.28;;;9.00;80.72
73341;BME280;61578;52.002;5.468;2023-05-24T02:43:52;102383.13;;;8.95;80.62
73341;BME280;61578;52.002;5.468;2023-05-24T02:44:23;102378.63;;;8.97;81.16
73341;BME280;61578;52.002;5.468;2023-05-24T02:44:53;102388.28;;;9.00;80.86
73341;BME280;61578;52.002;5.468;2023-05-24T02:45:24;102386.53;;;8.99;80.69
73341;BME280;61578;52.002;5.468;2023-05-24T02:45:55;102390.97;;;8.98;80.65
73341;BME280;61578;52.002;5.468;2023-05-24T02:46:28;102390.06;;;8.99;80.71
73341;BME280;61578;52.002;5.468;2023-05-24T02:46:59;102388.22;;;9.01;81.04
73341;BME280;61578;52.002;5.468;2023-05-24T02:47:33;102390.88;;;9.01;80.45
73341;BME280;61578;52.002;5.468;2023-05-24T02:48:04;102386.53;;;8.99;79.86
73341;BME280;61578;52.002;5.468;2023-05-24T02:48:34;102377.09;;;8.90;79.46
73341;BME280;61578;52.002;5.468;2023-05-24T02:49:05;102397.44;;;8.90;79.36
73341;BME280;61578;52.002;5.468;2023-05-24T02:49:36;102387.69;;;8.90;79.92
73341;BME280;61578;52.002;5.468;2023-05-24T02:50:07;102394.75;;;8.91;79.98
73341;BME280;61578;52.002;5.468;2023-05-24T02:50:38;102398.34;;;8.89;79.91
73341;BME280;61578;52.002;5.468;2023-05-24T02:51:11;102391.47;;;8.83;79.82
73341;BME280;61578;52.002;5.468;2023-05-24T02:51:42;102406.47;;;8.84;79.25
73341;BME280;61578;52.002;5.468;2023-05-24T02:52:13;102396.88;;;8.80;79.33
73341;BME280;61578;52.002;5.468;2023-05-24T02:52:46;102358.84;;;8.55;79.68
73341;BME280;61578;52.002;5.468;2023-05-24T02:53:17;102404.91;;;8.77;78.79
73341;BME280;61578;52.002;5.468;2023-05-24T02:53:47;102401.50;;;8.73;78.59
73341;BME280;61578;52.002;5.468;2023-05-24T02:54:18;102377.38;;;8.55;78.87
73341;BME280;61578;52.002;5.468;2023-05-24T02:54:49;102395.50;;;8.67;79.37
73341;BME280;61578;52.002;5.468;2023-05-24T02:55:20;102403.44;;;8.67;79.55
73341;BME280;61578;52.002;5.468;2023-05-24T02:55:50;102396.50;;;8.64;79.09
73341;BME280;61578;52.002;5.468;2023-05-24T02:56:21;102404.47;;;8.63;79.56
73341;BME280;61578;52.002;5.468;2023-05-24T02:56:54;102401.09;;;8.58;79.42
73341;BME280;61578;52.002;5.468;2023-05-24T02:57:27;102397.63;;;8.56;79.60
73341;BME280;61578;52.002;5.468;2023-05-24T02:57:58;102402.03;;;8.55;79.46
73341;BME280;61578;52.002;5.468;2023-05-24T02:58:28;102403.00;;;8.54;80.01
73341;BME280;61578;52.002;5.468;2023-05-24T02:58:59;102401.25;;;8.53;80.10
73341;BME280;61578;52.002;5.468;2023-05-24T02:59:33;102402.16;;;8.52;79.92
73341;BME280;61578;52.002;5.468;2023-05-24T03:00:04;102403.41;;;8.40;80.19
73341;BME280;61578;52.002;5.468;2023-05-24T03:00:40;102402.41;;;8.44;80.07
73341;BME280;61578;52.002;5.468;2023-05-24T03:01:11;102361.66;;;8.19;80.82
73341;BME280;61578;52.002;5.468;2023-05-24T03:01:44;102402.31;;;8.46;80.13
73341;BME280;61578;52.002;5.468;2023-05-24T03:02:15;102353.91;;;8.13;80.57
73341;BME280;61578;52.002;5.468;2023-05-24T03:02:47;102405.13;;;8.41;80.24
73341;BME280;61578;52.002;5.468;2023-05-24T03:03:20;102398.97;;;8.41;79.78
73341;BME280;61578;52.002;5.468;2023-05-24T03:03:53;102403.41;;;8.40;80.27
73341;BME280;61578;52.002;5.468;2023-05-24T03:04:24;102384.28;;;8.29;80.81
73341;BME280;61578;52.002;5.468;2023-05-24T03:04:55;102410.38;;;8.43;80.78
73341;BME280;61578;52.002;5.468;2023-05-24T03:05:25;102405.13;;;8.41;80.76
73341;BME280;61578;52.002;5.468;2023-05-24T03:05:58;102407.91;;;8.37;80.11